Midland, Georgia
Current Conditions -  °F | °C
As of 6:51 PM on Friday 31 Oct 2014 (Local Time) from KCSG Reporting Station
Broken Clouds Broken Clouds  
Wind Chill: 62°   Ceiling: 8500
Heat Index: 62°   Visibility: 10mi
Dew Point: 39°   Wind: 10mph
Humidity: 43%   Direction: 360°N
Pressure: 29.92"   Gusts: NA
Location:  32.57°N, 84.83°W
Report Text: KCSG 312251Z 36009KT 10SM BKN085 17/04 A2992 RMK AO2 SLP129 T01670039
Loading
Personal Weather Stations






























Interactive Weather Map
Tropical Storm Tracking
New forecast layout! Learn more

10-Day Weather Forecast

Advertisements
Track Severe Weather on mobile